Time;durP1;ratioP1;P1;durP2;ratioP2;P2;SDS_P1;SDS_P2;PMS_P1;PMS_P2;Temp;Humidity;BMP_temperature;BMP_pressure;BME280_temperature;BME280_humidity;BME280_pressure;Samples;Min_cycle;Max_cycle;Signal;HPM_P1;HPM_P2
2022/03/03 00:02:09;;;;;;;25.67;10.63;;;1.40;99.90;;;;;;5016471;28;20079;-75
2022/03/03 00:04:35;;;;;;;21.43;10.17;;;1.40;99.90;;;;;;5016357;28;20123;-75
2022/03/03 00:07:01;;;;;;;20.23;10.20;;;1.40;99.90;;;;;;5015133;28;20741;-77
2022/03/03 00:09:27;;;;;;;22.43;10.47;;;1.40;99.90;;;;;;5016484;28;20025;-77
2022/03/03 00:11:53;;;;;;;27.97;9.67;;;1.40;99.90;;;;;;5014905;28;20285;-76
2022/03/03 00:14:19;;;;;;;20.17;7.80;;;1.50;99.90;;;;;;5016030;28;20014;-76
2022/03/03 00:16:45;;;;;;;32.50;11.43;;;1.50;99.90;;;;;;5014686;28;20026;-76
2022/03/03 00:19:10;;;;;;;32.83;12.00;;;1.50;99.90;;;;;;5016044;28;20030;-76
2022/03/03 00:21:36;;;;;;;27.23;11.57;;;1.50;99.90;;;;;;5014820;28;20033;-75
2022/03/03 00:24:02;;;;;;;22.83;11.33;;;1.50;99.90;;;;;;5015775;28;20058;-76
2022/03/03 00:26:28;;;;;;;27.63;11.00;;;1.50;99.90;;;;;;5014996;28;20042;-77
2022/03/03 00:28:54;;;;;;;25.73;11.20;;;1.50;99.90;;;;;;5015634;28;20030;-76
2022/03/03 00:31:19;;;;;;;29.17;10.97;;;1.60;99.90;;;;;;5026180;28;20498;-76
2022/03/03 00:33:45;;;;;;;20.07;8.47;;;1.60;99.90;;;;;;5015927;28;20128;-80
2022/03/03 00:36:11;;;;;;;30.07;11.57;;;1.60;99.90;;;;;;5027573;28;20041;-76
2022/03/03 00:38:37;;;;;;;21.70;8.50;;;1.70;99.90;;;;;;5035451;28;20025;-76
2022/03/03 00:41:03;;;;;;;16.47;6.83;;;1.80;99.90;;;;;;5017496;28;20065;-76
2022/03/03 00:43:28;;;;;;;27.27;10.33;;;1.70;99.90;;;;;;5035280;28;20021;-76
2022/03/03 00:45:54;;;;;;;27.97;10.73;;;1.80;99.90;;;;;;5035391;28;20033;-76
2022/03/03 00:48:20;;;;;;;21.67;8.77;;;1.70;99.90;;;;;;5017761;28;20071;-75
2022/03/03 00:50:46;;;;;;;16.50;7.37;;;1.80;99.90;;;;;;5035380;28;20071;-76
2022/03/03 00:53:11;;;;;;;20.73;9.67;;;1.80;99.90;;;;;;5035008;28;20297;-76
2022/03/03 00:55:37;;;;;;;23.03;10.37;;;1.80;99.90;;;;;;5017775;28;20033;-75
2022/03/03 00:58:03;;;;;;;21.93;10.20;;;1.70;99.90;;;;;;5035048;28;20033;-76
2022/03/03 01:00:29;;;;;;;25.47;11.30;;;1.70;99.90;;;;;;5035044;28;20028;-80
2022/03/03 01:02:55;;;;;;;27.27;9.77;;;1.60;99.90;;;;;;5035188;28;20337;-75
2022/03/03 01:05:20;;;;;;;16.20;6.67;;;1.50;99.90;;;;;;5034863;28;20041;-76
2022/03/03 01:07:47;;;;;;;26.70;10.57;;;1.30;99.90;;;;;;5017550;28;20335;-75
2022/03/03 01:10:13;;;;;;;25.33;11.00;;;1.20;99.90;;;;;;5035110;28;20040;-77
2022/03/03 01:12:39;;;;;;;28.33;10.90;;;1.20;99.90;;;;;;5017289;28;20057;-75
2022/03/03 01:15:07;;;;;;;16.42;7.00;;;1.10;99.90;;;;;;5017468;28;20080;-75
2022/03/03 01:17:33;;;;;;;25.35;10.80;;;1.10;99.90;;;;;;5027102;28;20065;-77
2022/03/03 01:19:59;;;;;;;23.90;11.18;;;1.00;99.90;;;;;;5035223;28;20029;-76
2022/03/03 01:22:25;;;;;;;23.63;11.05;;;0.90;99.90;;;;;;5034718;28;20041;-76
2022/03/03 01:24:51;;;;;;;18.90;8.07;;;0.80;99.90;;;;;;5017101;28;20033;-76
2022/03/03 01:27:16;;;;;;;22.50;13.40;;;0.70;99.90;;;;;;5034645;28;20416;-76
2022/03/03 01:29:42;;;;;;;21.17;8.70;;;0.70;99.90;;;;;;5017531;28;20442;-76
2022/03/03 01:32:08;;;;;;;28.40;11.43;;;0.70;99.90;;;;;;5017103;28;20041;-76
2022/03/03 01:34:35;;;;;;;17.60;8.13;;;0.70;99.90;;;;;;5034192;28;20033;-78
2022/03/03 01:37:02;;;;;;;26.63;11.65;;;0.70;99.90;;;;;;5033153;28;20026;-76
2022/03/03 01:39:27;;;;;;;26.50;11.25;;;0.60;99.90;;;;;;5034165;28;20436;-76
2022/03/03 01:41:53;;;;;;;27.33;11.37;;;0.70;99.90;;;;;;5034818;28;20087;-75
2022/03/03 01:44:19;;;;;;;25.30;11.23;;;0.70;99.90;;;;;;5017105;28;20060;-76
2022/03/03 01:46:53;;;;;;;24.53;9.07;;;0.70;99.90;;;;;;5031067;28;20025;-75
2022/03/03 01:49:19;;;;;;;22.88;10.98;;;0.70;99.90;;;;;;4999387;28;20111;-75
2022/03/03 01:51:45;;;;;;;35.25;11.93;;;0.70;99.90;;;;;;5018666;28;20409;-76
2022/03/03 01:54:11;;;;;;;26.27;10.90;;;0.70;99.90;;;;;;5038155;28;20115;-75
2022/03/03 01:56:38;;;;;;;26.67;11.63;;;0.60;99.90;;;;;;5037611;28;20324;-75
2022/03/03 01:59:04;;;;;;;30.85;12.35;;;0.70;99.90;;;;;;5004148;28;20372;-76
2022/03/03 02:01:31;;;;;;;28.27;11.97;;;0.70;99.90;;;;;;5038167;28;20110;-76
2022/03/03 02:03:57;;;;;;;;;;;0.70;99.90;;;;;;5038786;28;20416;-75
2022/03/03 02:06:24;;;;;;;25.98;9.55;;;0.80;99.90;;;;;;5020618;28;20261;-75
2022/03/03 02:08:49;;;;;;;25.42;11.35;;;0.70;99.90;;;;;;5037810;28;20033;-81
2022/03/03 02:11:16;;;;;;;26.90;10.93;;;0.80;99.90;;;;;;5038179;28;20025;-75
2022/03/03 02:13:41;;;;;;;25.90;10.25;;;0.80;99.90;;;;;;5037838;28;20044;-75
2022/03/03 02:16:08;;;;;;;29.20;12.10;;;0.80;99.90;;;;;;5020541;28;20388;-75
2022/03/03 02:18:39;;;;;;;25.02;10.60;;;0.80;99.90;;;;;;5038211;28;20040;-76
2022/03/03 02:21:05;;;;;;;27.77;12.55;;;0.80;99.90;;;;;;5037954;28;20037;-75
2022/03/03 02:23:31;;;;;;;28.93;11.80;;;0.80;99.90;;;;;;5038094;28;20033;-76
2022/03/03 02:25:57;;;;;;;32.77;11.57;;;0.80;99.90;;;;;;5038056;28;20029;-75
2022/03/03 02:28:23;;;;;;;28.42;12.38;;;0.80;99.90;;;;;;5037831;28;20025;-75
2022/03/03 02:30:49;;;;;;;27.37;12.37;;;0.70;99.90;;;;;;5031114;28;20061;-75
2022/03/03 02:33:14;;;;;;;30.13;11.90;;;0.70;99.90;;;;;;5017986;28;20034;-76
2022/03/03 02:35:40;;;;;;;27.50;12.67;;;0.70;99.90;;;;;;5000586;28;20439;-76
2022/03/03 02:38:06;;;;;;;21.97;11.37;;;0.70;99.90;;;;;;5016559;28;20026;-75
2022/03/03 02:40:32;;;;;;;16.97;8.47;;;0.60;99.90;;;;;;5016924;28;20014;-76
2022/03/03 02:42:58;;;;;;;23.87;10.63;;;0.60;99.90;;;;;;5018015;28;20377;-75
2022/03/03 02:45:24;;;;;;;26.45;11.02;;;0.60;99.90;;;;;;5017787;28;20034;-75
2022/03/03 02:47:51;;;;;;;28.17;12.13;;;0.60;99.90;;;;;;4999964;28;20083;-78
2022/03/03 02:50:21;;;;;;;33.58;12.18;;;0.70;99.90;;;;;;5017623;28;20087;-76
2022/03/03 02:52:47;;;;;;;32.08;11.98;;;0.70;99.90;;;;;;5009811;28;20309;-75
2022/03/03 02:55:12;;;;;;;29.57;12.73;;;0.70;99.90;;;;;;5000029;28;20033;-76
2022/03/03 02:57:53;;;;;;;24.50;9.93;;;0.70;99.90;;;;;;5017495;28;20029;-76
2022/03/03 03:00:31;;;;;;;25.13;10.63;;;0.80;99.90;;;;;;5008378;28;20044;-76
2022/03/03 03:02:57;;;;;;;28.85;10.77;;;0.80;99.90;;;;;;5014756;28;20116;-75
2022/03/03 03:05:22;;;;;;;25.33;11.40;;;0.80;99.90;;;;;;4999978;28;20112;-75
2022/03/03 03:07:49;;;;;;;29.13;10.10;;;0.80;99.90;;;;;;5017084;28;20336;-75
2022/03/03 03:10:15;;;;;;;24.77;11.40;;;0.70;99.90;;;;;;4999944;28;20037;-79
2022/03/03 03:12:41;;;;;;;26.80;11.00;;;0.60;99.90;;;;;;4998849;28;20065;-75
2022/03/03 03:15:08;;;;;;;32.05;11.75;;;0.50;99.90;;;;;;4999710;28;20113;-75
2022/03/03 03:17:34;;;;;;;24.67;10.55;;;0.60;99.90;;;;;;5016928;28;20045;-75
2022/03/03 03:20:00;;;;;;;27.23;11.15;;;0.50;99.90;;;;;;4999840;28;20030;-76
2022/03/03 03:22:25;;;;;;;28.10;12.00;;;0.60;99.90;;;;;;4999386;28;20436;-75
2022/03/03 03:24:51;;;;;;;18.83;8.03;;;0.50;99.90;;;;;;4999734;28;20380;-75
2022/03/03 03:27:17;;;;;;;24.97;10.50;;;0.40;99.90;;;;;;5016551;28;20098;-80
2022/03/03 03:29:43;;;;;;;27.27;11.77;;;0.40;99.90;;;;;;4999470;28;20440;-76
2022/03/03 03:32:08;;;;;;;20.20;8.27;;;0.40;99.90;;;;;;5012752;28;20091;-76
2022/03/03 03:34:34;;;;;;;28.33;12.13;;;0.40;99.90;;;;;;5016999;28;20026;-75
2022/03/03 03:37:00;;;;;;;27.43;10.80;;;0.40;99.90;;;;;;5016879;28;20025;-75
2022/03/03 03:39:25;;;;;;;20.80;9.33;;;0.40;99.90;;;;;;5015473;28;20037;-75
2022/03/03 03:41:51;;;;;;;27.77;12.10;;;0.40;99.90;;;;;;5015811;28;20309;-75
2022/03/03 03:44:17;;;;;;;30.30;11.43;;;0.40;99.90;;;;;;5015489;28;20084;-75
2022/03/03 03:46:43;;;;;;;29.73;11.63;;;0.40;99.90;;;;;;5015613;28;20030;-75
2022/03/03 03:49:09;;;;;;;25.80;11.35;;;0.40;99.90;;;;;;5016440;28;20076;-75
2022/03/03 03:51:35;;;;;;;28.73;11.32;;;0.50;99.90;;;;;;5015379;28;20088;-75
2022/03/03 03:54:01;;;;;;;19.90;8.13;;;0.50;99.90;;;;;;5015469;28;20034;-80
2022/03/03 03:56:26;;;;;;;26.33;10.07;;;0.50;99.90;;;;;;5015232;28;20294;-75
2022/03/03 03:58:52;;;;;;;29.17;12.00;;;0.50;99.90;;;;;;5016354;28;20025;-75
2022/03/03 04:01:18;;;;;;;25.10;11.17;;;0.40;99.90;;;;;;5016170;28;20030;-75
2022/03/03 04:03:44;;;;;;;16.60;6.73;;;0.40;99.90;;;;;;5016160;28;20076;-76
2022/03/03 04:06:09;;;;;;;24.83;9.87;;;0.50;99.90;;;;;;5016448;28;20026;-75
2022/03/03 04:08:35;;;;;;;27.13;10.80;;;0.50;99.90;;;;;;5015939;28;20444;-75
2022/03/03 04:11:02;;;;;;;20.60;7.50;;;0.50;99.90;;;;;;5015785;28;20030;-79
2022/03/03 04:13:27;;;;;;;;;;;0.50;99.90;;;;;;5016194;28;20057;-75
2022/03/03 04:15:53;;;;;;;23.30;10.43;;;0.50;99.90;;;;;;5016125;28;20006;-75
2022/03/03 04:18:20;;;;;;;17.83;7.73;;;0.50;99.90;;;;;;5015735;28;20153;-75
2022/03/03 04:20:45;;;;;;;23.48;10.30;;;0.50;99.90;;;;;;5015961;28;20789;-75
2022/03/03 04:23:11;;;;;;;21.23;10.10;;;0.40;99.90;;;;;;5014883;28;20112;-75
2022/03/03 04:25:37;;;;;;;23.83;9.95;;;0.20;99.90;;;;;;5015915;28;20030;-75
2022/03/03 04:28:03;;;;;;;18.93;7.93;;;0.10;99.90;;;;;;5014858;28;20436;-75
2022/03/03 04:30:30;;;;;;;27.87;11.27;;;-0.10;99.90;;;;;;5011299;28;20392;-75
2022/03/03 04:32:56;;;;;;;;;;;-0.10;99.90;;;;;;5035691;28;20289;-75
2022/03/03 04:35:22;;;;;;;18.20;7.23;;;-0.20;99.90;;;;;;5018190;28;20223;-75
2022/03/03 04:37:47;;;;;;;25.52;10.43;;;-0.20;99.90;;;;;;5035243;28;20029;-81
2022/03/03 04:40:13;;;;;;;20.53;8.07;;;-0.20;99.90;;;;;;5032264;28;20084;-75
2022/03/03 04:42:39;;;;;;;30.63;11.97;;;-0.10;99.90;;;;;;5016834;28;20104;-75
2022/03/03 04:45:05;;;;;;;24.07;11.53;;;-0.10;99.90;;;;;;5030682;28;20033;-75
2022/03/03 04:47:31;;;;;;;27.23;10.82;;;0.00;99.90;;;;;;5033546;28;20053;-76
2022/03/03 04:49:57;;;;;;;23.33;11.17;;;0.00;99.90;;;;;;5031040;28;20037;-75
2022/03/03 04:52:23;;;;;;;16.93;8.20;;;0.00;99.90;;;;;;5028414;28;20065;-75
2022/03/03 04:54:49;;;;;;;28.08;11.45;;;-0.10;99.90;;;;;;5027991;28;20013;-75
2022/03/03 04:57:16;;;;;;;20.65;9.80;;;0.00;99.90;;;;;;5014089;28;20033;-75
2022/03/03 04:59:41;;;;;;;25.70;10.70;;;-0.20;99.90;;;;;;5031389;28;20025;-75
2022/03/03 05:02:07;;;;;;;22.80;10.53;;;-0.40;99.90;;;;;;5034109;28;20420;-75
2022/03/03 05:04:33;;;;;;;17.97;7.77;;;-0.50;99.90;;;;;;5033790;28;20043;-76
2022/03/03 05:06:59;;;;;;;25.87;10.43;;;-0.50;99.90;;;;;;5016187;28;20068;-75
2022/03/03 05:09:24;;;;;;;21.40;10.60;;;-0.60;99.90;;;;;;5015309;28;20022;-75
2022/03/03 05:11:50;;;;;;;27.83;11.40;;;-0.70;99.90;;;;;;5032624;28;20024;-75
2022/03/03 05:14:16;;;;;;;25.97;10.87;;;-0.80;99.90;;;;;;5013470;28;20169;-75
2022/03/03 05:16:42;;;;;;;24.77;11.23;;;-0.70;99.90;;;;;;5016494;28;20404;-75
2022/03/03 05:19:07;;;;;;;21.37;7.93;;;-0.80;99.90;;;;;;5015938;28;20116;-76
2022/03/03 05:21:33;;;;;;;25.73;11.50;;;-0.80;99.90;;;;;;5033981;28;20026;-75
2022/03/03 05:23:59;;;;;;;23.50;8.87;;;-0.80;99.90;;;;;;5035088;28;20034;-75
2022/03/03 05:26:25;;;;;;;34.63;12.07;;;-0.70;99.90;;;;;;5037992;28;20320;-75
2022/03/03 05:28:51;;;;;;;28.97;11.83;;;-0.60;99.90;;;;;;5017791;28;20032;-75
2022/03/03 05:31:17;;;;;;;26.60;11.20;;;-0.60;99.90;;;;;;5025500;28;20045;-75
2022/03/03 05:33:43;;;;;;;32.17;12.00;;;-0.40;99.90;;;;;;5018330;28;20029;-75
2022/03/03 05:36:10;;;;;;;18.50;7.73;;;-0.40;99.90;;;;;;5019064;28;20030;-75
2022/03/03 05:38:36;;;;;;;34.50;11.93;;;-0.30;99.90;;;;;;5018597;28;20026;-81
2022/03/03 05:41:03;;;;;;;32.60;12.93;;;-0.30;99.90;;;;;;5018840;28;20022;-75
2022/03/03 05:43:29;;;;;;;;;;;-0.20;99.90;;;;;;5019356;28;20038;-75
2022/03/03 05:45:56;;;;;;;25.77;11.55;;;-0.20;99.90;;;;;;5018037;28;19960;-76
2022/03/03 05:48:23;;;;;;;25.20;11.30;;;-0.30;99.90;;;;;;5000814;28;20448;-75
2022/03/03 05:50:49;;;;;;;27.35;11.60;;;-0.30;99.90;;;;;;5018753;28;20034;-75
2022/03/03 05:53:16;;;;;;;25.85;11.00;;;-0.40;99.90;;;;;;5018560;28;20081;-75
2022/03/03 05:55:44;;;;;;;33.17;12.63;;;-0.60;99.90;;;;;;5018701;28;20057;-76
2022/03/03 05:58:19;;;;;;;26.15;12.27;;;-0.70;99.90;;;;;;5018754;28;20030;-75
2022/03/03 06:00:46;;;;;;;26.48;11.65;;;-0.70;99.90;;;;;;5001122;28;20030;-75
2022/03/03 06:03:17;;;;;;;25.20;11.30;;;-0.70;99.90;;;;;;5018492;28;20041;-76
2022/03/03 06:05:50;;;;;;;22.95;10.02;;;-0.60;99.90;;;;;;5001173;28;20037;-75
2022/03/03 06:08:20;;;;;;;30.88;11.57;;;-0.70;99.90;;;;;;5018288;28;20409;-75
2022/03/03 06:10:53;;;;;;;30.33;11.52;;;-0.70;99.90;;;;;;5001143;28;20107;-75
2022/03/03 06:13:23;;;;;;;31.20;12.02;;;-0.70;99.90;;;;;;5018250;28;20037;-75
2022/03/03 06:15:50;;;;;;;33.20;11.70;;;-0.60;99.90;;;;;;5018618;28;20113;-75
2022/03/03 06:18:27;;;;;;;30.02;12.07;;;-0.70;99.90;;;;;;5018290;28;20076;-76
2022/03/03 06:20:54;;;;;;;23.42;11.52;;;-0.70;99.90;;;;;;5018317;28;20385;-75
2022/03/03 06:23:20;;;;;;;31.10;12.68;;;-0.70;99.90;;;;;;5017989;28;20058;-75
2022/03/03 06:26:07;;;;;;;21.38;9.32;;;-0.70;99.90;;;;;;5018250;28;20034;-75
2022/03/03 06:28:34;;;;;;;27.95;11.15;;;-0.70;99.90;;;;;;5010043;28;20065;-75
2022/03/03 06:31:00;;;;;;;31.20;13.60;;;-0.70;99.90;;;;;;5025645;28;20045;-75
2022/03/03 06:33:26;;;;;;;28.48;11.98;;;-0.70;99.90;;;;;;5019888;28;20324;-75
2022/03/03 06:35:53;;;;;;;28.35;11.30;;;-0.60;99.90;;;;;;5019604;28;20037;-75
2022/03/03 06:38:18;;;;;;;28.55;11.23;;;-0.60;99.90;;;;;;5019919;28;20456;-75
2022/03/03 06:40:44;;;;;;;27.57;11.87;;;-0.70;99.90;;;;;;5037690;28;20061;-75
2022/03/03 06:43:10;;;;;;;26.03;11.13;;;-0.70;99.90;;;;;;5020003;28;20033;-81
2022/03/03 06:45:36;;;;;;;30.00;11.60;;;-0.80;99.90;;;;;;5019244;28;20354;-75
2022/03/03 06:48:04;;;;;;;23.10;9.00;;;-0.80;99.90;;;;;;5037512;28;20026;-76
2022/03/03 06:50:33;;;;;;;30.27;12.23;;;-0.80;99.90;;;;;;5035823;28;20025;-75
2022/03/03 06:53:01;;;;;;;36.45;11.88;;;-0.80;99.90;;;;;;5037137;28;20367;-76
2022/03/03 06:55:30;;;;;;;24.52;10.60;;;-0.80;99.90;;;;;;5019820;28;20326;-80
2022/03/03 06:57:57;;;;;;;33.28;11.40;;;-0.80;99.90;;;;;;5019698;28;20078;-75
2022/03/03 07:00:25;;;;;;;27.75;12.40;;;-0.60;99.90;;;;;;5036845;28;20025;-75
2022/03/03 07:02:52;;;;;;;29.58;12.13;;;-0.50;99.90;;;;;;5037015;28;20040;-79
2022/03/03 07:05:19;;;;;;;31.95;13.15;;;-0.40;99.90;;;;;;5037118;28;20029;-75
2022/03/03 07:07:47;;;;;;;31.85;11.85;;;-0.20;99.90;;;;;;5029117;28;20048;-75
2022/03/03 07:10:14;;;;;;;29.92;12.35;;;0.00;99.90;;;;;;5037133;28;20718;-75
2022/03/03 07:12:40;;;;;;;31.30;13.48;;;0.30;99.90;;;;;;5036677;28;20040;-75
2022/03/03 07:15:08;;;;;;;34.70;12.73;;;0.80;99.90;;;;;;5036904;28;20104;-75
2022/03/03 07:17:43;;;;;;;27.90;12.20;;;1.30;99.90;;;;;;5032023;28;20040;-75
2022/03/03 07:20:14;;;;;;;23.50;11.05;;;1.80;99.90;;;;;;5019339;28;20079;-75
2022/03/03 07:23:09;;;;;;;26.33;11.73;;;2.20;99.90;;;;;;5016166;28;20556;-75
2022/03/03 07:25:40;;;;;;;26.02;11.88;;;2.50;99.90;;;;;;4982596;28;20072;-75
2022/03/03 07:28:08;;;;;;;24.38;11.90;;;3.10;99.90;;;;;;5031789;28;20317;-75
2022/03/03 07:30:43;;;;;;;30.20;11.88;;;4.00;99.90;;;;;;5011938;28;20337;-79
2022/03/03 07:33:24;;;;;;;25.85;11.48;;;5.00;99.90;;;;;;5011880;28;20030;-75
2022/03/03 07:35:55;;;;;;;23.33;10.75;;;5.80;99.90;;;;;;5012338;28;20416;-75
2022/03/03 07:38:29;;;;;;;22.80;11.00;;;6.10;99.90;;;;;;5015545;28;20093;-75
2022/03/03 07:40:56;;;;;;;18.65;8.75;;;6.70;99.90;;;;;;5014692;28;21544;-76
2022/03/03 07:43:22;;;;;;;36.30;10.65;;;6.90;99.90;;;;;;5015555;28;20018;-79
2022/03/03 07:45:48;;;;;;;22.87;10.70;;;7.00;99.90;;;;;;5013823;28;20033;-75
2022/03/03 07:48:14;;;;;;;16.92;8.20;;;7.10;99.90;;;;;;5015157;28;20420;-75
2022/03/03 07:50:42;;;;;;;20.40;10.13;;;7.00;99.90;;;;;;5014586;28;20121;-75
2022/03/03 07:53:10;;;;;;;22.83;10.95;;;7.10;99.90;;;;;;5015947;28;20030;-75
2022/03/03 07:55:46;;;;;;;19.65;11.15;;;7.00;99.90;;;;;;5015131;28;20022;-75
2022/03/03 07:58:14;;;;;;;21.48;10.57;;;7.00;99.90;;;;;;5012354;28;20025;-76
2022/03/03 08:00:47;;;;;;;24.10;11.57;;;7.40;99.90;;;;;;5015408;28;20030;-76
2022/03/03 08:03:16;;;;;;;20.60;10.52;;;7.40;99.90;;;;;;5016239;28;20030;-76
2022/03/03 08:05:45;;;;;;;23.05;9.73;;;7.60;99.90;;;;;;5015383;28;20429;-76
2022/03/03 08:08:14;;;;;;;25.00;10.43;;;7.40;99.90;;;;;;5005054;28;20355;-76
2022/03/03 08:10:44;;;;;;;22.80;10.73;;;8.00;99.90;;;;;;5014161;28;20030;-76
2022/03/03 08:13:17;;;;;;;33.72;9.95;;;8.10;99.90;;;;;;5015583;28;20026;-75
2022/03/03 08:15:44;;;;;;;24.58;10.50;;;7.80;99.90;;;;;;5013855;28;20328;-76
2022/03/03 08:18:09;;;;;;;;;;;7.40;99.90;;;;;;5012782;28;20072;-81
2022/03/03 08:20:38;;;;;;;12.80;6.83;;;7.80;99.90;;;;;;4996060;28;20229;-76
2022/03/03 08:23:05;;;;;;;19.27;10.00;;;7.80;99.90;;;;;;5011993;28;20555;-75
2022/03/03 08:25:33;;;;;;;21.27;8.65;;;8.00;99.90;;;;;;5012089;28;20033;-75
2022/03/03 08:27:59;;;;;;;20.33;9.25;;;8.00;99.70;;;;;;5011470;28;20030;-76
2022/03/03 08:30:25;;;;;;;21.08;9.75;;;8.60;99.30;;;;;;5016199;28;20048;-76
2022/03/03 08:33:00;;;;;;;17.10;8.43;;;8.70;98.40;;;;;;5032365;28;20037;-77
2022/03/03 08:35:29;;;;;;;16.38;8.80;;;8.60;98.30;;;;;;5014621;28;20056;-76
2022/03/03 08:38:06;;;;;;;19.30;9.18;;;9.00;97.30;;;;;;5029031;28;20057;-82
2022/03/03 08:40:34;;;;;;;16.83;7.65;;;9.30;96.40;;;;;;5031473;28;20412;-76
2022/03/03 08:43:03;;;;;;;20.17;9.63;;;9.20;95.90;;;;;;5034542;28;20033;-76
2022/03/03 08:45:32;;;;;;;21.30;9.55;;;9.00;95.10;;;;;;5033735;28;20033;-76
2022/03/03 08:48:06;;;;;;;20.75;9.05;;;9.50;96.10;;;;;;5033841;28;20076;-77
2022/03/03 08:50:34;;;;;;;20.75;9.25;;;9.50;94.50;;;;;;5010694;28;20026;-76
2022/03/03 08:53:01;;;;;;;15.35;8.40;;;9.60;95.50;;;;;;5012462;28;20065;-76
2022/03/03 08:55:30;;;;;;;17.77;8.85;;;9.40;94.00;;;;;;5008477;28;20324;-76
2022/03/03 08:57:58;;;;;;;18.67;8.82;;;9.20;94.40;;;;;;5025643;28;20121;-76
2022/03/03 09:00:24;;;;;;;20.65;10.15;;;9.10;94.80;;;;;;5034161;28;20404;-77
2022/03/03 09:02:50;;;;;;;17.35;8.02;;;9.50;94.80;;;;;;5035036;28;20026;-76
2022/03/03 09:05:16;;;;;;;18.75;8.98;;;9.50;93.50;;;;;;5034416;28;20033;-76
2022/03/03 09:07:42;;;;;;;19.07;9.07;;;9.20;94.30;;;;;;5035074;28;20374;-77
2022/03/03 09:10:09;;;;;;;20.00;8.95;;;9.60;94.30;;;;;;5034807;28;20067;-76
2022/03/03 09:12:35;;;;;;;17.50;8.38;;;10.00;93.50;;;;;;5017217;28;20048;-76
2022/03/03 09:15:00;;;;;;;17.52;8.10;;;10.00;94.20;;;;;;5017380;28;20026;-77
2022/03/03 09:17:26;;;;;;;18.80;9.43;;;9.90;93.00;;;;;;5034684;28;20072;-81
2022/03/03 09:19:52;;;;;;;18.67;7.90;;;10.10;93.50;;;;;;5017494;28;20045;-77
2022/03/03 09:22:18;;;;;;;18.53;9.20;;;10.20;92.70;;;;;;5016942;28;20034;-77
2022/03/03 09:24:43;;;;;;;18.53;8.50;;;9.90;93.00;;;;;;5035048;28;20298;-77
2022/03/03 09:27:09;;;;;;;19.77;8.27;;;10.00;92.60;;;;;;5034963;28;20030;-77
2022/03/03 09:29:35;;;;;;;18.95;7.68;;;9.90;92.10;;;;;;5034386;28;20372;-78
2022/03/03 09:32:03;;;;;;;17.23;9.03;;;9.90;92.40;;;;;;5034703;28;20049;-77
2022/03/03 09:34:29;;;;;;;18.77;9.02;;;9.90;92.60;;;;;;5034360;28;20053;-80
2022/03/03 09:36:56;;;;;;;16.92;8.75;;;10.30;92.80;;;;;;5029842;28;20022;-77
2022/03/03 09:39:22;;;;;;;;;;;10.40;93.40;;;;;;5013679;28;20442;-78
2022/03/03 09:41:50;;;;;;;16.45;7.40;;;10.50;91.40;;;;;;5032855;28;19913;-78
2022/03/03 09:44:21;;;;;;;15.43;7.00;;;10.20;91.40;;;;;;5030610;28;20033;-77
2022/03/03 09:46:46;;;;;;;22.38;8.98;;;9.90;91.30;;;;;;5014439;28;20036;-77
2022/03/03 09:49:12;;;;;;;16.45;8.77;;;9.90;93.00;;;;;;5029716;28;20025;-78
2022/03/03 09:51:38;;;;;;;15.07;8.07;;;10.00;92.30;;;;;;5011529;28;20037;-77
2022/03/03 09:54:06;;;;;;;15.13;9.13;;;9.90;91.70;;;;;;5026283;28;20056;-78
2022/03/03 09:56:32;;;;;;;17.98;8.55;;;9.90;92.40;;;;;;5033281;28;20108;-78
2022/03/03 09:58:57;;;;;;;16.00;8.70;;;10.20;92.40;;;;;;5033923;28;20109;-82
2022/03/03 10:01:30;;;;;;;15.35;8.68;;;10.20;91.10;;;;;;5030613;28;20036;-77
2022/03/03 10:04:23;;;;;;;18.40;8.80;;;10.20;91.30;;;;;;5028192;28;20531;-78
2022/03/03 10:06:50;;;;;;;16.60;7.95;;;10.30;90.80;;;;;;5032356;28;20033;-78
2022/03/03 10:09:17;;;;;;;;;;;10.50;91.00;;;;;;5015004;28;20064;-79
2022/03/03 10:11:48;;;;;;;;;;;10.50;90.60;;;;;;5030410;28;19953;-77
2022/03/03 10:14:49;;;;;;;18.73;8.45;;;10.50;90.60;;;;;;5031334;28;19967;-77
2022/03/03 10:17:16;;;;;;;17.00;8.40;;;10.70;91.80;;;;;;4955480;29;20106;-78
2022/03/03 10:20:11;;;;;;;15.13;8.25;;;10.90;90.10;;;;;;4956150;29;20039;-77
2022/03/03 10:22:42;;;;;;;16.15;8.38;;;10.90;90.20;;;;;;4918241;29;20436;-78
2022/03/03 10:25:10;;;;;;;12.75;6.93;;;10.90;91.30;;;;;;4919126;29;20160;-77
2022/03/03 10:27:35;;;;;;;17.55;9.30;;;10.70;90.50;;;;;;4919029;29;20044;-77
2022/03/03 10:30:03;;;;;;;24.47;8.50;;;10.50;91.30;;;;;;4902122;29;20407;-80
2022/03/03 10:32:29;;;;;;;18.88;8.27;;;10.40;90.70;;;;;;4902144;29;20153;-77
2022/03/03 10:35:01;;;;;;;13.60;8.00;;;10.60;91.80;;;;;;4919251;29;20024;-78
2022/03/03 10:37:27;;;;;;;16.08;8.55;;;10.80;90.90;;;;;;4901709;29;20123;-78
2022/03/03 10:39:58;;;;;;;22.00;9.90;;;10.70;90.10;;;;;;4913471;29;20588;-77
2022/03/03 10:42:25;;;;;;;15.68;7.95;;;10.70;92.00;;;;;;4916141;29;20038;-77
2022/03/03 10:45:08;;;;;;;16.08;8.10;;;10.40;91.70;;;;;;4892666;29;20104;-80
2022/03/03 10:47:34;;;;;;;18.13;8.55;;;10.10;92.80;;;;;;4902769;29;20087;-78
2022/03/03 10:50:01;;;;;;;18.07;8.10;;;9.90;95.00;;;;;;4918443;29;20020;-78
2022/03/03 10:52:27;;;;;;;;;;;9.90;92.60;;;;;;4956455;29;20054;-78
2022/03/03 10:54:56;;;;;;;;;;;10.00;92.20;;;;;;4940992;29;19914;-77
2022/03/03 10:57:42;;;;;;;17.48;9.43;;;9.90;95.30;;;;;;4950345;29;20317;-78
2022/03/03 11:00:12;;;;;;;17.25;9.00;;;9.90;95.20;;;;;;5025325;28;20091;-79
2022/03/03 11:02:49;;;;;;;18.95;8.90;;;10.10;94.90;;;;;;5017064;28;20432;-78
2022/03/03 11:05:16;;;;;;;16.35;8.30;;;10.10;93.50;;;;;;5036050;28;20408;-78
2022/03/03 11:07:44;;;;;;;17.70;9.10;;;10.10;92.30;;;;;;5032109;28;20485;-78
2022/03/03 11:10:30;;;;;;;15.55;8.50;;;10.10;94.00;;;;;;5015099;28;20025;-78
2022/03/03 11:12:56;;;;;;;23.98;9.30;;;10.20;92.40;;;;;;5017572;28;20061;-77
2022/03/03 11:15:24;;;;;;;16.03;7.37;;;10.30;93.20;;;;;;5018317;28;20120;-78
2022/03/03 11:17:52;;;;;;;16.25;9.43;;;10.40;94.10;;;;;;5019008;28;20048;-77
2022/03/03 11:20:19;;;;;;;13.90;7.85;;;10.40;93.00;;;;;;5036900;28;20018;-78
2022/03/03 11:22:46;;;;;;;20.98;8.48;;;10.40;93.50;;;;;;5035491;28;20404;-78
2022/03/03 11:25:14;;;;;;;;;;;10.30;94.80;;;;;;5026774;28;20041;-78
2022/03/03 11:27:41;;;;;;;18.23;7.82;;;9.90;95.90;;;;;;5014853;28;19909;-77
2022/03/03 11:30:12;;;;;;;20.10;8.93;;;9.70;99.20;;;;;;5032657;28;20079;-77
2022/03/03 11:32:38;;;;;;;18.30;9.85;;;9.60;99.50;;;;;;4995737;28;20041;-78
2022/03/03 11:35:13;;;;;;;20.20;9.50;;;9.70;98.60;;;;;;4995800;28;20026;-77
2022/03/03 11:37:45;;;;;;;16.80;10.13;;;9.90;99.30;;;;;;5012975;28;20057;-78
2022/03/03 11:40:18;;;;;;;19.65;8.65;;;9.90;99.90;;;;;;4995825;28;20446;-79
2022/03/03 11:42:49;;;;;;;15.02;7.85;;;9.90;98.60;;;;;;5013350;28;20037;-78
2022/03/03 11:45:18;;;;;;;14.73;7.85;;;9.90;98.10;;;;;;5013187;28;20037;-79
2022/03/03 11:47:49;;;;;;;12.00;7.35;;;10.10;97.40;;;;;;5013280;28;20384;-78
2022/03/03 11:50:19;;;;;;;15.52;7.72;;;10.40;94.50;;;;;;5013113;28;20038;-77
2022/03/03 11:53:10;;;;;;;12.23;6.75;;;10.60;92.20;;;;;;4995316;28;20037;-78
2022/03/03 11:55:43;;;;;;;15.68;8.27;;;10.80;90.00;;;;;;4978792;28;20432;-78
2022/03/03 11:58:24;;;;;;;12.60;7.78;;;11.00;90.80;;;;;;4993988;28;20723;-79
2022/03/03 12:01:01;;;;;;;15.60;7.68;;;11.00;90.90;;;;;;5013109;28;20033;-79
2022/03/03 12:03:28;;;;;;;17.85;8.00;;;11.10;90.10;;;;;;4988444;28;20433;-77
2022/03/03 12:06:09;;;;;;;11.73;7.45;;;11.20;90.50;;;;;;4991543;28;20030;-79
2022/03/03 12:08:36;;;;;;;11.18;6.95;;;11.20;86.30;;;;;;4978098;28;20038;-80
2022/03/03 12:11:10;;;;;;;12.43;7.40;;;11.20;86.50;;;;;;4982176;28;20034;-77
2022/03/03 12:13:35;;;;;;;11.73;7.30;;;11.20;87.20;;;;;;4991157;28;20037;-78
2022/03/03 12:16:15;;;;;;;13.23;7.23;;;11.20;87.70;;;;;;4994737;28;20022;-79
2022/03/03 12:18:42;;;;;;;16.67;8.23;;;11.10;87.90;;;;;;5006378;28;20030;-80
2022/03/03 12:21:32;;;;;;;15.68;7.40;;;11.20;88.20;;;;;;4994798;28;20033;-78
2022/03/03 12:24:18;;;;;;;10.75;7.25;;;11.50;86.90;;;;;;5012497;28;20448;-78
2022/03/03 12:26:55;;;;;;;15.13;8.43;;;11.70;85.50;;;;;;4995020;28;20356;-78
2022/03/03 12:29:57;;;;;;;14.35;7.10;;;11.80;85.70;;;;;;4994781;28;20034;-79
2022/03/03 12:32:39;;;;;;;11.38;7.10;;;11.90;87.30;;;;;;5030330;28;20463;-77
2022/03/03 12:35:14;;;;;;;11.95;6.40;;;11.80;84.00;;;;;;5032174;28;20048;-78
2022/03/03 12:37:45;;;;;;;13.57;7.60;;;11.70;84.00;;;;;;5024826;28;20034;-78
2022/03/03 12:40:12;;;;;;;13.35;7.38;;;11.60;83.10;;;;;;5014011;28;20112;-77
2022/03/03 12:42:45;;;;;;;11.20;6.78;;;11.70;84.50;;;;;;5024645;28;20168;-80
2022/03/03 12:45:16;;;;;;;15.35;6.90;;;11.80;83.90;;;;;;5013971;28;20033;-78
2022/03/03 12:48:00;;;;;;;15.88;8.15;;;11.90;82.80;;;;;;5014149;28;20408;-78